sensor_id;sensor_type;location;lat;lon;timestamp;pressure;altitude;pressure_sealevel;temperature;humidity
72395;BME280;60384;48.152;11.614;2023-08-08T00:01:54;95929.59;;;13.30;67.74
72395;BME280;60384;48.152;11.614;2023-08-08T00:04:56;95921.56;;;13.30;68.22
72395;BME280;60384;48.152;11.614;2023-08-08T00:07:57;95914.75;;;13.33;67.94
72395;BME280;60384;48.152;11.614;2023-08-08T00:11:00;95912.06;;;13.33;68.03
72395;BME280;60384;48.152;11.614;2023-08-08T00:14:02;95917.44;;;13.33;67.78
72395;BME280;60384;48.152;11.614;2023-08-08T00:17:03;95916.78;;;13.36;68.05
72395;BME280;60384;48.152;11.614;2023-08-08T00:20:05;95913.00;;;13.37;67.81
72395;BME280;60384;48.152;11.614;2023-08-08T00:23:08;95911.09;;;13.37;67.68
72395;BME280;60384;48.152;11.614;2023-08-08T00:26:11;95917.25;;;13.38;67.93
72395;BME280;60384;48.152;11.614;2023-08-08T00:29:12;95908.41;;;13.37;68.08
72395;BME280;60384;48.152;11.614;2023-08-08T00:32:15;95900.78;;;13.39;68.02
72395;BME280;60384;48.152;11.614;2023-08-08T00:35:17;95905.06;;;13.40;67.64
72395;BME280;60384;48.152;11.614;2023-08-08T00:38:19;95912.31;;;13.40;67.93
72395;BME280;60384;48.152;11.614;2023-08-08T00:41:22;95913.91;;;13.41;67.94
72395;BME280;60384;48.152;11.614;2023-08-08T00:44:24;95906.16;;;13.39;67.82
72395;BME280;60384;48.152;11.614;2023-08-08T00:47:25;95909.19;;;13.38;67.79
72395;BME280;60384;48.152;11.614;2023-08-08T00:50:29;95908.84;;;13.39;67.81
72395;BME280;60384;48.152;11.614;2023-08-08T00:53:30;95901.59;;;13.40;67.98
72395;BME280;60384;48.152;11.614;2023-08-08T00:56:34;95903.94;;;13.41;67.84
72395;BME280;60384;48.152;11.614;2023-08-08T00:59:36;95892.91;;;13.43;67.86
72395;BME280;60384;48.152;11.614;2023-08-08T01:02:38;95893.69;;;13.43;67.94
72395;BME280;60384;48.152;11.614;2023-08-08T01:05:41;95890.22;;;13.43;67.83
72395;BME280;60384;48.152;11.614;2023-08-08T01:08:45;95897.47;;;13.42;67.97
72395;BME280;60384;48.152;11.614;2023-08-08T01:11:49;95891.31;;;13.42;68.13
72395;BME280;60384;48.152;11.614;2023-08-08T01:14:53;95896.69;;;13.42;67.85
72395;BME280;60384;48.152;11.614;2023-08-08T01:17:55;95897.47;;;13.42;67.82
72395;BME280;60384;48.152;11.614;2023-08-08T01:20:57;95899.38;;;13.42;67.73
72395;BME280;60384;48.152;11.614;2023-08-08T01:24:00;95892.09;;;13.42;67.89
72395;BME280;60384;48.152;11.614;2023-08-08T01:27:08;95878.69;;;13.42;67.94
72395;BME280;60384;48.152;11.614;2023-08-08T01:30:09;95884.06;;;13.42;67.87
72395;BME280;60384;48.152;11.614;2023-08-08T01:33:14;95881.38;;;13.42;67.68
72395;BME280;60384;48.152;11.614;2023-08-08T01:36:18;95879.00;;;13.41;67.68
72395;BME280;60384;48.152;11.614;2023-08-08T01:39:22;95878.53;;;13.39;68.03
72395;BME280;60384;48.152;11.614;2023-08-08T01:42:27;95873.53;;;13.37;67.74
72395;BME280;60384;48.152;11.614;2023-08-08T01:45:29;95871.94;;;13.36;67.70
72395;BME280;60384;48.152;11.614;2023-08-08T01:48:31;95873.84;;;13.36;67.98
72395;BME280;60384;48.152;11.614;2023-08-08T01:51:33;95869.16;;;13.33;67.82
72395;BME280;60384;48.152;11.614;2023-08-08T01:54:34;95863.31;;;13.31;67.99
72395;BME280;60384;48.152;11.614;2023-08-08T01:57:37;95874.38;;;13.29;67.85
72395;BME280;60384;48.152;11.614;2023-08-08T02:00:39;95876.25;;;13.29;67.82
72395;BME280;60384;48.152;11.614;2023-08-08T02:03:41;95867.78;;;13.27;67.90
72395;BME280;60384;48.152;11.614;2023-08-08T02:06:44;95866.19;;;13.26;68.07
72395;BME280;60384;48.152;11.614;2023-08-08T02:09:46;95864.63;;;13.24;68.08
72395;BME280;60384;48.152;11.614;2023-08-08T02:12:54;95866.06;;;13.22;67.94
72395;BME280;60384;48.152;11.614;2023-08-08T02:15:55;95862.94;;;13.20;68.04
72395;BME280;60384;48.152;11.614;2023-08-08T02:18:57;95869.72;;;13.17;68.37
72395;BME280;60384;48.152;11.614;2023-08-08T02:21:59;95856.19;;;13.14;67.98
72395;BME280;60384;48.152;11.614;2023-08-08T02:25:00;95852.72;;;13.13;68.22
72395;BME280;60384;48.152;11.614;2023-08-08T02:28:03;95864.06;;;13.10;68.15
72395;BME280;60384;48.152;11.614;2023-08-08T02:31:05;95856.38;;;13.09;68.24
72395;BME280;60384;48.152;11.614;2023-08-08T02:34:07;95854.00;;;13.07;68.11
72395;BME280;60384;48.152;11.614;2023-08-08T02:37:08;95849.28;;;13.04;67.93
72395;BME280;60384;48.152;11.614;2023-08-08T02:40:10;95856.88;;;13.02;68.08
72395;BME280;60384;48.152;11.614;2023-08-08T02:43:13;95851.84;;;13.01;68.06
72395;BME280;60384;48.152;11.614;2023-08-08T02:46:15;95855.31;;;13.01;68.08
72395;BME280;60384;48.152;11.614;2023-08-08T02:49:16;95857.53;;;12.99;67.96
72395;BME280;60384;48.152;11.614;2023-08-08T02:52:19;95857.06;;;12.97;67.93
72395;BME280;60384;48.152;11.614;2023-08-08T02:55:20;95844.78;;;12.96;67.98
72395;BME280;60384;48.152;11.614;2023-08-08T02:58:26;95855.03;;;12.94;68.05
72395;BME280;60384;48.152;11.614;2023-08-08T03:01:28;95859.97;;;12.92;68.06
72395;BME280;60384;48.152;11.614;2023-08-08T03:04:31;95864.84;;;12.90;68.13
72395;BME280;60384;48.152;11.614;2023-08-08T03:07:32;95862.50;;;12.89;67.96
72395;BME280;60384;48.152;11.614;2023-08-08T03:10:34;95859.03;;;12.88;67.84
72395;BME280;60384;48.152;11.614;2023-08-08T03:13:37;95861.69;;;12.88;67.98
72395;BME280;60384;48.152;11.614;2023-08-08T03:16:39;95863.16;;;12.86;68.18
72395;BME280;60384;48.152;11.614;2023-08-08T03:19:42;95851.63;;;12.85;68.13
72395;BME280;60384;48.152;11.614;2023-08-08T03:22:44;95856.22;;;12.84;67.95
72395;BME280;60384;48.152;11.614;2023-08-08T03:25:46;95850.84;;;12.84;67.97
72395;BME280;60384;48.152;11.614;2023-08-08T03:28:50;95870.09;;;12.87;67.80
72395;BME280;60384;48.152;11.614;2023-08-08T03:31:59;95857.13;;;12.89;67.94
72395;BME280;60384;48.152;11.614;2023-08-08T03:35:04;95852.56;;;12.89;67.94
72395;BME280;60384;48.152;11.614;2023-08-08T03:38:07;95850.34;;;12.91;67.86
72395;BME280;60384;48.152;11.614;2023-08-08T03:41:09;95848.09;;;12.93;68.47
72395;BME280;60384;48.152;11.614;2023-08-08T03:44:12;95844.31;;;12.94;67.84
72395;BME280;60384;48.152;11.614;2023-08-08T03:47:13;95845.09;;;12.95;67.84
72395;BME280;60384;48.152;11.614;2023-08-08T03:50:15;95843.53;;;12.94;68.07
72395;BME280;60384;48.152;11.614;2023-08-08T03:53:17;95846.56;;;12.92;67.73
72395;BME280;60384;48.152;11.614;2023-08-08T03:56:18;95841.19;;;12.92;67.98
72395;BME280;60384;48.152;11.614;2023-08-08T03:59:21;95847.66;;;12.91;67.83
72395;BME280;60384;48.152;11.614;2023-08-08T04:02:23;95854.25;;;12.94;67.91
72395;BME280;60384;48.152;11.614;2023-08-08T04:05:25;95844.31;;;12.94;68.06
72395;BME280;60384;48.152;11.614;2023-08-08T04:08:27;95852.34;;;12.94;68.06
72395;BME280;60384;48.152;11.614;2023-08-08T04:11:28;95856.63;;;12.95;67.82
72395;BME280;60384;48.152;11.614;2023-08-08T04:14:31;95862.44;;;12.97;67.93
72395;BME280;60384;48.152;11.614;2023-08-08T04:17:33;95854.84;;;12.99;67.94
72395;BME280;60384;48.152;11.614;2023-08-08T04:20:35;95862.56;;;13.01;67.96
72395;BME280;60384;48.152;11.614;2023-08-08T04:23:36;95865.25;;;13.01;67.96
72395;BME280;60384;48.152;11.614;2023-08-08T04:26:38;95861.47;;;13.02;67.92
72395;BME280;60384;48.152;11.614;2023-08-08T04:29:42;95859.56;;;13.02;67.85
72395;BME280;60384;48.152;11.614;2023-08-08T04:32:43;95863.03;;;13.03;67.96
72395;BME280;60384;48.152;11.614;2023-08-08T04:35:45;95870.72;;;13.04;68.03
72395;BME280;60384;48.152;11.614;2023-08-08T04:38:47;95869.31;;;13.07;67.84
72395;BME280;60384;48.152;11.614;2023-08-08T04:41:49;95858.25;;;13.08;68.01
72395;BME280;60384;48.152;11.614;2023-08-08T04:44:52;95871.00;;;13.11;68.23
72395;BME280;60384;48.152;11.614;2023-08-08T04:47:54;95860.28;;;13.11;68.02
72395;BME280;60384;48.152;11.614;2023-08-08T04:50:56;95868.81;;;13.13;68.55
72395;BME280;60384;48.152;11.614;2023-08-08T04:53:57;95857.31;;;13.13;67.80
72395;BME280;60384;48.152;11.614;2023-08-08T04:56:59;95855.09;;;13.15;68.12
72395;BME280;60384;48.152;11.614;2023-08-08T05:00:02;95864.69;;;13.16;68.17
72395;BME280;60384;48.152;11.614;2023-08-08T05:03:06;95859.00;;;13.17;67.99
72395;BME280;60384;48.152;11.614;2023-08-08T05:06:07;95869.09;;;13.20;68.09
72395;BME280;60384;48.152;11.614;2023-08-08T05:09:09;95863.38;;;13.22;68.13
72395;BME280;60384;48.152;11.614;2023-08-08T05:12:11;95862.59;;;13.21;68.24
72395;BME280;60384;48.152;11.614;2023-08-08T05:15:14;95864.94;;;13.23;68.58
72395;BME280;60384;48.152;11.614;2023-08-08T05:18:15;95865.72;;;13.23;68.02
72395;BME280;60384;48.152;11.614;2023-08-08T05:21:17;95863.53;;;13.26;68.21
72395;BME280;60384;48.152;11.614;2023-08-08T05:24:19;95868.53;;;13.27;68.13
72395;BME280;60384;48.152;11.614;2023-08-08T05:27:20;95850.53;;;13.28;68.40
72395;BME280;60384;48.152;11.614;2023-08-08T05:30:23;95860.16;;;13.29;68.13
72395;BME280;60384;48.152;11.614;2023-08-08T05:33:25;95856.38;;;13.30;68.44
72395;BME280;60384;48.152;11.614;2023-08-08T05:36:26;95864.53;;;13.33;67.93
72395;BME280;60384;48.152;11.614;2023-08-08T05:39:29;95855.06;;;13.36;68.17
72395;BME280;60384;48.152;11.614;2023-08-08T05:42:31;95853.28;;;13.40;68.30
72395;BME280;60384;48.152;11.614;2023-08-08T05:45:33;95849.16;;;13.42;68.17
72395;BME280;60384;48.152;11.614;2023-08-08T05:48:35;95859.22;;;13.45;68.20
72395;BME280;60384;48.152;11.614;2023-08-08T05:51:37;95847.84;;;13.48;68.17
72395;BME280;60384;48.152;11.614;2023-08-08T05:54:38;95852.88;;;13.50;68.28
72395;BME280;60384;48.152;11.614;2023-08-08T05:57:40;95854.13;;;13.52;68.20
72395;BME280;60384;48.152;11.614;2023-08-08T06:00:43;95855.69;;;13.53;68.09
72395;BME280;60384;48.152;11.614;2023-08-08T06:03:45;95853.47;;;13.55;68.34
72395;BME280;60384;48.152;11.614;2023-08-08T06:06:47;95858.16;;;13.58;68.29
72395;BME280;60384;48.152;11.614;2023-08-08T06:09:49;95856.75;;;13.61;68.05
72395;BME280;60384;48.152;11.614;2023-08-08T06:12:51;95865.69;;;13.65;68.12
72395;BME280;60384;48.152;11.614;2023-08-08T06:15:54;95861.22;;;13.69;68.34
72395;BME280;60384;48.152;11.614;2023-08-08T06:18:56;95863.25;;;13.72;68.09
72395;BME280;60384;48.152;11.614;2023-08-08T06:21:57;95863.69;;;13.74;68.56
72395;BME280;60384;48.152;11.614;2023-08-08T06:24:59;95861.16;;;13.78;68.22
72395;BME280;60384;48.152;11.614;2023-08-08T06:28:01;95862.84;;;13.82;68.46
72395;BME280;60384;48.152;11.614;2023-08-08T06:31:04;95867.19;;;13.87;68.54
72395;BME280;60384;48.152;11.614;2023-08-08T06:34:05;95855.03;;;13.89;68.59
72395;BME280;60384;48.152;11.614;2023-08-08T06:37:07;95868.25;;;13.94;68.43
72395;BME280;60384;48.152;11.614;2023-08-08T06:40:09;95854.44;;;13.96;68.36
72395;BME280;60384;48.152;11.614;2023-08-08T06:43:11;95858.38;;;13.98;68.59
72395;BME280;60384;48.152;11.614;2023-08-08T06:46:14;95845.41;;;14.00;68.92
72395;BME280;60384;48.152;11.614;2023-08-08T06:49:15;95861.31;;;14.05;68.65
72395;BME280;60384;48.152;11.614;2023-08-08T06:52:17;95859.53;;;14.10;68.14
72395;BME280;60384;48.152;11.614;2023-08-08T06:55:18;95861.19;;;14.14;68.30
72395;BME280;60384;48.152;11.614;2023-08-08T06:58:20;95857.19;;;14.20;68.08
72395;BME280;60384;48.152;11.614;2023-08-08T07:01:23;95854.72;;;14.27;67.95
72395;BME280;60384;48.152;11.614;2023-08-08T07:04:25;95842.31;;;14.35;67.96
72395;BME280;60384;48.152;11.614;2023-08-08T07:07:26;95850.19;;;14.40;68.24
72395;BME280;60384;48.152;11.614;2023-08-08T07:10:30;95842.31;;;14.47;68.02
72395;BME280;60384;48.152;11.614;2023-08-08T07:13:31;95847.50;;;14.52;68.33
72395;BME280;60384;48.152;11.614;2023-08-08T07:16:34;95846.91;;;14.59;67.91
72395;BME280;60384;48.152;11.614;2023-08-08T07:19:36;95842.88;;;14.65;68.30
72395;BME280;60384;48.152;11.614;2023-08-08T07:22:37;95841.88;;;14.69;68.18
72395;BME280;60384;48.152;11.614;2023-08-08T07:25:39;95850.94;;;14.77;68.12
72395;BME280;60384;48.152;11.614;2023-08-08T07:28:41;95850.38;;;14.83;68.18
72395;BME280;60384;48.152;11.614;2023-08-08T07:31:44;95847.91;;;14.91;68.40
72395;BME280;60384;48.152;11.614;2023-08-08T07:34:45;95845.75;;;14.96;68.00
72395;BME280;60384;48.152;11.614;2023-08-08T07:37:47;95840.94;;;15.02;68.32
72395;BME280;60384;48.152;11.614;2023-08-08T07:40:48;95841.13;;;15.09;68.52
72395;BME280;60384;48.152;11.614;2023-08-08T07:43:50;95836.41;;;15.18;67.99
72395;BME280;60384;48.152;11.614;2023-08-08T07:46:53;95851.25;;;15.27;68.07
72395;BME280;60384;48.152;11.614;2023-08-08T07:49:55;95837.69;;;15.36;68.44
72395;BME280;60384;48.152;11.614;2023-08-08T07:52:57;95838.56;;;15.40;68.25
72395;BME280;60384;48.152;11.614;2023-08-08T07:55:58;95836.72;;;15.44;68.13
72395;BME280;60384;48.152;11.614;2023-08-08T07:59:00;95829.34;;;15.53;68.34
72395;BME280;60384;48.152;11.614;2023-08-08T08:02:03;95823.69;;;15.58;68.34
72395;BME280;60384;48.152;11.614;2023-08-08T08:05:05;95817.63;;;15.61;68.41
72395;BME280;60384;48.152;11.614;2023-08-08T08:08:08;95814.78;;;15.70;68.30
72395;BME280;60384;48.152;11.614;2023-08-08T08:11:09;95818.44;;;15.78;68.18
72395;BME280;60384;48.152;11.614;2023-08-08T08:14:11;95810.91;;;15.83;68.54
72395;BME280;60384;48.152;11.614;2023-08-08T08:17:14;95805.94;;;15.85;68.17
72395;BME280;60384;48.152;11.614;2023-08-08T08:20:15;95802.97;;;15.90;68.13
72395;BME280;60384;48.152;11.614;2023-08-08T08:23:17;95799.34;;;15.98;68.33
72395;BME280;60384;48.152;11.614;2023-08-08T08:26:19;95797.59;;;16.06;68.18
72395;BME280;60384;48.152;11.614;2023-08-08T08:29:21;95798.53;;;16.13;68.06
72395;BME280;60384;48.152;11.614;2023-08-08T08:32:24;95795.59;;;16.19;68.00
72395;BME280;60384;48.152;11.614;2023-08-08T08:35:25;95793.78;;;16.23;68.27
72395;BME280;60384;48.152;11.614;2023-08-08T08:38:27;95802.28;;;16.25;68.23
72395;BME280;60384;48.152;11.614;2023-08-08T08:41:29;95790.44;;;16.29;68.25
72395;BME280;60384;48.152;11.614;2023-08-08T08:44:33;95791.31;;;16.33;68.19
72395;BME280;60384;48.152;11.614;2023-08-08T08:47:37;95790.72;;;16.40;67.90
72395;BME280;60384;48.152;11.614;2023-08-08T08:50:39;95781.97;;;16.46;67.83
72395;BME280;60384;48.152;11.614;2023-08-08T08:53:41;95782.50;;;16.52;67.94
72395;BME280;60384;48.152;11.614;2023-08-08T08:56:43;95781.56;;;16.60;67.99
72395;BME280;60384;48.152;11.614;2023-08-08T08:59:45;95777.97;;;16.72;67.99
72395;BME280;60384;48.152;11.614;2023-08-08T09:02:48;95777.25;;;16.75;67.88
72395;BME280;60384;48.152;11.614;2023-08-08T09:05:50;95779.69;;;16.80;68.03
72395;BME280;60384;48.152;11.614;2023-08-08T09:08:54;95767.91;;;16.88;68.01
72395;BME280;60384;48.152;11.614;2023-08-08T09:11:56;95773.44;;;16.95;68.04
72395;BME280;60384;48.152;11.614;2023-08-08T09:14:58;95766.63;;;17.01;68.00
72395;BME280;60384;48.152;11.614;2023-08-08T09:18:00;95771.31;;;17.04;67.79
72395;BME280;60384;48.152;11.614;2023-08-08T09:21:02;95769.09;;;17.10;67.70
72395;BME280;60384;48.152;11.614;2023-08-08T09:24:04;95771.25;;;17.20;67.79
72395;BME280;60384;48.152;11.614;2023-08-08T09:27:06;95764.91;;;17.31;67.55
72395;BME280;60384;48.152;11.614;2023-08-08T09:30:09;95768.63;;;17.43;67.36
72395;BME280;60384;48.152;11.614;2023-08-08T09:33:12;95771.13;;;17.55;67.26
72395;BME280;60384;48.152;11.614;2023-08-08T09:36:14;95768.25;;;17.63;67.47
72395;BME280;60384;48.152;11.614;2023-08-08T09:39:16;95760.31;;;17.74;67.55
72395;BME280;60384;48.152;11.614;2023-08-08T09:42:17;95752.81;;;17.87;67.48
72395;BME280;60384;48.152;11.614;2023-08-08T09:45:19;95758.63;;;17.89;67.43
72395;BME280;60384;48.152;11.614;2023-08-08T09:48:24;95762.13;;;17.89;67.04
72395;BME280;60384;48.152;11.614;2023-08-08T09:51:30;95762.97;;;17.93;67.19
72395;BME280;60384;48.152;11.614;2023-08-08T09:54:33;95744.09;;;17.97;67.69
72395;BME280;60384;48.152;11.614;2023-08-08T09:57:35;95746.97;;;18.07;67.32
72395;BME280;60384;48.152;11.614;2023-08-08T10:00:39;95742.88;;;18.17;67.16
72395;BME280;60384;48.152;11.614;2023-08-08T10:03:43;95744.91;;;18.24;67.29
72395;BME280;60384;48.152;11.614;2023-08-08T10:06:46;95747.28;;;18.29;67.04
72395;BME280;60384;48.152;11.614;2023-08-08T10:09:48;95737.34;;;18.33;67.02
72395;BME280;60384;48.152;11.614;2023-08-08T10:12:50;95737.41;;;18.40;66.98
72395;BME280;60384;48.152;11.614;2023-08-08T10:15:52;95755.34;;;18.51;67.02
72395;BME280;60384;48.152;11.614;2023-08-08T10:18:56;95750.91;;;18.63;67.19
72395;BME280;60384;48.152;11.614;2023-08-08T10:21:59;95739.00;;;18.67;67.16
72395;BME280;60384;48.152;11.614;2023-08-08T10:25:04;95740.63;;;18.72;67.19
72395;BME280;60384;48.152;11.614;2023-08-08T10:28:08;95741.84;;;18.78;67.01
72395;BME280;60384;48.152;11.614;2023-08-08T10:31:15;95738.03;;;18.82;66.76
72395;BME280;60384;48.152;11.614;2023-08-08T10:34:19;95750.53;;;18.90;66.85
72395;BME280;60384;48.152;11.614;2023-08-08T10:37:21;95752.53;;;18.97;66.61
72395;BME280;60384;48.152;11.614;2023-08-08T10:40:23;95742.53;;;19.01;66.68
72395;BME280;60384;48.152;11.614;2023-08-08T10:43:25;95737.19;;;19.08;66.75
72395;BME280;60384;48.152;11.614;2023-08-08T10:46:27;95741.53;;;19.13;66.59
72395;BME280;60384;48.152;11.614;2023-08-08T10:49:30;95727.19;;;19.12;66.85
72395;BME280;60384;48.152;11.614;2023-08-08T10:52:32;95733.00;;;19.14;67.08
72395;BME280;60384;48.152;11.614;2023-08-08T10:55:35;95731.50;;;19.17;66.85
72395;BME280;60384;48.152;11.614;2023-08-08T10:58:37;95730.72;;;19.16;66.53
72395;BME280;60384;48.152;11.614;2023-08-08T11:01:40;95736.13;;;19.16;66.75
72395;BME280;60384;48.152;11.614;2023-08-08T11:04:43;95738.47;;;19.18;66.68
72395;BME280;60384;48.152;11.614;2023-08-08T11:07:45;95725.72;;;19.18;66.53
72395;BME280;60384;48.152;11.614;2023-08-08T11:10:50;95728.47;;;19.25;66.41
72395;BME280;60384;48.152;11.614;2023-08-08T11:13:52;95723.97;;;19.36;66.59
72395;BME280;60384;48.152;11.614;2023-08-08T11:16:54;95729.53;;;19.47;66.25
72395;BME280;60384;48.152;11.614;2023-08-08T11:19:57;95716.03;;;19.54;65.96
72395;BME280;60384;48.152;11.614;2023-08-08T11:22:59;95712.63;;;19.61;66.06
72395;BME280;60384;48.152;11.614;2023-08-08T11:26:00;95714.63;;;19.67;65.91
72395;BME280;60384;48.152;11.614;2023-08-08T11:29:03;95700.72;;;19.69;65.95
72395;BME280;60384;48.152;11.614;2023-08-08T11:32:06;95701.94;;;19.75;66.16
72395;BME280;60384;48.152;11.614;2023-08-08T11:35:09;95708.59;;;19.85;65.89
72395;BME280;60384;48.152;11.614;2023-08-08T11:38:10;95697.03;;;19.95;65.91
72395;BME280;60384;48.152;11.614;2023-08-08T11:41:12;95695.91;;;19.99;66.12
72395;BME280;60384;48.152;11.614;2023-08-08T11:44:14;95704.09;;;20.03;65.72
72395;BME280;60384;48.152;11.614;2023-08-08T11:47:16;95697.88;;;19.99;65.93
72395;BME280;60384;48.152;11.614;2023-08-08T11:50:20;95677.41;;;20.08;65.88
72395;BME280;60384;48.152;11.614;2023-08-08T11:53:23;95684.19;;;20.32;65.33
72395;BME280;60384;48.152;11.614;2023-08-08T11:56:24;95682.00;;;20.62;65.33
72395;BME280;60384;48.152;11.614;2023-08-08T11:59:26;95683.69;;;20.88;65.43
72395;BME280;60384;48.152;11.614;2023-08-08T12:02:29;95671.00;;;21.17;65.46
72395;BME280;60384;48.152;11.614;2023-08-08T12:05:35;95677.63;;;21.37;65.03
72395;BME280;60384;48.152;11.614;2023-08-08T12:08:37;95668.78;;;21.97;64.56
72395;BME280;60384;48.152;11.614;2023-08-08T12:11:39;95667.53;;;22.48;63.83
72395;BME280;60384;48.152;11.614;2023-08-08T12:14:42;95669.88;;;22.49;64.13
72395;BME280;60384;48.152;11.614;2023-08-08T12:17:44;95675.81;;;23.24;63.19
72395;BME280;60384;48.152;11.614;2023-08-08T12:20:48;95682.41;;;23.30;63.62
72395;BME280;60384;48.152;11.614;2023-08-08T12:23:50;95679.88;;;23.68;63.82
72395;BME280;60384;48.152;11.614;2023-08-08T12:26:51;95681.22;;;23.94;64.22
72395;BME280;60384;48.152;11.614;2023-08-08T12:29:53;95677.06;;;24.26;64.14
72395;BME280;60384;48.152;11.614;2023-08-08T12:32:55;95670.16;;;24.11;64.80
72395;BME280;60384;48.152;11.614;2023-08-08T12:35:57;95674.69;;;23.84;65.86
72395;BME280;60384;48.152;11.614;2023-08-08T12:38:59;95680.44;;;23.38;66.53
72395;BME280;60384;48.152;11.614;2023-08-08T12:42:01;95679.94;;;22.74;67.93
72395;BME280;60384;48.152;11.614;2023-08-08T12:45:03;95680.03;;;22.31;67.85
72395;BME280;60384;48.152;11.614;2023-08-08T12:48:04;95672.34;;;23.82;64.78
72395;BME280;60384;48.152;11.614;2023-08-08T12:51:07;95672.66;;;24.77;62.71
72395;BME280;60384;48.152;11.614;2023-08-08T12:54:09;95659.91;;;25.58;61.61
72395;BME280;60384;48.152;11.614;2023-08-08T12:57:11;95661.63;;;25.99;60.84
72395;BME280;60384;48.152;11.614;2023-08-08T13:00:13;95663.72;;;26.38;60.47
72395;BME280;60384;48.152;11.614;2023-08-08T13:03:15;95666.75;;;26.43;61.41
72395;BME280;60384;48.152;11.614;2023-08-08T13:06:18;95662.53;;;26.82;60.87
72395;BME280;60384;48.152;11.614;2023-08-08T13:09:19;95667.22;;;27.21;60.48
72395;BME280;60384;48.152;11.614;2023-08-08T13:12:21;95661.47;;;26.95;61.48
72395;BME280;60384;48.152;11.614;2023-08-08T13:15:22;95661.69;;;27.04;62.63
72395;BME280;60384;48.152;11.614;2023-08-08T13:18:24;95662.66;;;27.34;61.73
72395;BME280;60384;48.152;11.614;2023-08-08T13:21:27;95665.56;;;27.43;61.85
72395;BME280;60384;48.152;11.614;2023-08-08T13:24:29;95665.66;;;27.75;61.70
72395;BME280;60384;48.152;11.614;2023-08-08T13:27:30;95666.81;;;27.58;62.57
72395;BME280;60384;48.152;11.614;2023-08-08T13:30:32;95662.81;;;26.87;64.67
72395;BME280;60384;48.152;11.614;2023-08-08T13:33:34;95663.94;;;26.70;64.73
72395;BME280;60384;48.152;11.614;2023-08-08T13:36:37;95651.06;;;27.06;63.68
72395;BME280;60384;48.152;11.614;2023-08-08T13:39:38;95656.13;;;27.08;63.48
72395;BME280;60384;48.152;11.614;2023-08-08T13:42:40;95647.28;;;27.36;62.94
72395;BME280;60384;48.152;11.614;2023-08-08T13:45:42;95644.72;;;27.65;62.91
72395;BME280;60384;48.152;11.614;2023-08-08T13:48:44;95641.97;;;27.81;62.61
72395;BME280;60384;48.152;11.614;2023-08-08T13:51:47;95644.53;;;27.88;62.43
72395;BME280;60384;48.152;11.614;2023-08-08T13:54:49;95638.44;;;27.65;62.60
72395;BME280;60384;48.152;11.614;2023-08-08T13:57:51;95641.44;;;27.54;62.38
72395;BME280;60384;48.152;11.614;2023-08-08T14:00:55;95660.78;;;27.47;62.64
72395;BME280;60384;48.152;11.614;2023-08-08T14:03:56;95640.38;;;27.48;62.30
72395;BME280;60384;48.152;11.614;2023-08-08T14:06:59;95630.72;;;27.60;61.98
72395;BME280;60384;48.152;11.614;2023-08-08T14:10:01;95632.94;;;27.65;61.79
72395;BME280;60384;48.152;11.614;2023-08-08T14:13:04;95644.88;;;27.58;61.28
72395;BME280;60384;48.152;11.614;2023-08-08T14:16:05;95629.47;;;27.44;61.20
72395;BME280;60384;48.152;11.614;2023-08-08T14:19:07;95630.16;;;27.12;61.71
72395;BME280;60384;48.152;11.614;2023-08-08T14:22:10;95630.97;;;26.93;61.92
72395;BME280;60384;48.152;11.614;2023-08-08T14:25:12;95628.63;;;26.52;62.27
72395;BME280;60384;48.152;11.614;2023-08-08T14:28:13;95626.44;;;26.20;62.12
72395;BME280;60384;48.152;11.614;2023-08-08T14:31:15;95622.28;;;25.89;63.09
72395;BME280;60384;48.152;11.614;2023-08-08T14:34:16;95620.84;;;25.58;63.31
72395;BME280;60384;48.152;11.614;2023-08-08T14:37:19;95613.22;;;25.69;62.27
72395;BME280;60384;48.152;11.614;2023-08-08T14:40:21;95633.84;;;25.77;62.39
72395;BME280;60384;48.152;11.614;2023-08-08T14:43:23;95629.50;;;25.79;62.04
72395;BME280;60384;48.152;11.614;2023-08-08T14:46:24;95635.13;;;25.69;61.94
72395;BME280;60384;48.152;11.614;2023-08-08T14:49:26;95625.41;;;25.37;62.24
72395;BME280;60384;48.152;11.614;2023-08-08T14:52:29;95627.59;;;25.23;62.51
72395;BME280;60384;48.152;11.614;2023-08-08T14:55:30;95619.00;;;24.94;62.86
72395;BME280;60384;48.152;11.614;2023-08-08T14:58:32;95621.31;;;24.95;62.44
72395;BME280;60384;48.152;11.614;2023-08-08T15:01:35;95619.88;;;25.14;62.23
72395;BME280;60384;48.152;11.614;2023-08-08T15:04:36;95621.69;;;25.24;62.17
72395;BME280;60384;48.152;11.614;2023-08-08T15:07:39;95626.03;;;25.22;61.86
72395;BME280;60384;48.152;11.614;2023-08-08T15:10:41;95627.16;;;25.24;61.95
72395;BME280;60384;48.152;11.614;2023-08-08T15:13:42;95634.75;;;25.13;61.61
72395;BME280;60384;48.152;11.614;2023-08-08T15:16:48;95627.97;;;24.94;62.25
72395;BME280;60384;48.152;11.614;2023-08-08T15:19:49;95624.34;;;25.01;61.83
72395;BME280;60384;48.152;11.614;2023-08-08T15:22:52;95624.53;;;24.87;61.80
72395;BME280;60384;48.152;11.614;2023-08-08T15:25:54;95621.94;;;24.73;61.78
72395;BME280;60384;48.152;11.614;2023-08-08T15:28:56;95627.84;;;24.71;61.73
72395;BME280;60384;48.152;11.614;2023-08-08T15:31:57;95630.13;;;24.76;61.72
72395;BME280;60384;48.152;11.614;2023-08-08T15:34:59;95621.53;;;24.74;61.99
72395;BME280;60384;48.152;11.614;2023-08-08T15:38:02;95628.84;;;24.50;61.90
72395;BME280;60384;48.152;11.614;2023-08-08T15:41:04;95617.81;;;24.23;61.79
72395;BME280;60384;48.152;11.614;2023-08-08T15:44:06;95620.94;;;24.25;61.79
72395;BME280;60384;48.152;11.614;2023-08-08T15:47:07;95615.97;;;24.51;61.44
72395;BME280;60384;48.152;11.614;2023-08-08T15:50:09;95615.84;;;24.61;61.38
72395;BME280;60384;48.152;11.614;2023-08-08T15:53:12;95631.22;;;24.48;61.17